sensor_id;sensor_type;location;lat;lon;timestamp;P1;durP1;ratioP1;P2;durP2;ratioP2
59846;SDS011;45728;48.788;2.302;2023-12-29T00:02:17;13.27;;;3.45;;
59846;SDS011;45728;48.788;2.302;2023-12-29T00:04:43;13.75;;;3.72;;
59846;SDS011;45728;48.788;2.302;2023-12-29T00:07:09;10.15;;;3.20;;
59846;SDS011;45728;48.788;2.302;2023-12-29T00:09:35;14.20;;;4.03;;
59846;SDS011;45728;48.788;2.302;2023-12-29T00:12:03;13.48;;;3.38;;
59846;SDS011;45728;48.788;2.302;2023-12-29T00:14:30;16.95;;;3.70;;
59846;SDS011;45728;48.788;2.302;2023-12-29T00:16:56;13.82;;;3.42;;
59846;SDS011;45728;48.788;2.302;2023-12-29T00:19:22;13.05;;;3.53;;
59846;SDS011;45728;48.788;2.302;2023-12-29T00:21:48;14.68;;;3.22;;
59846;SDS011;45728;48.788;2.302;2023-12-29T00:24:14;16.42;;;3.50;;
59846;SDS011;45728;48.788;2.302;2023-12-29T00:26:41;18.08;;;4.00;;
59846;SDS011;45728;48.788;2.302;2023-12-29T00:29:07;12.32;;;3.67;;
59846;SDS011;45728;48.788;2.302;2023-12-29T00:31:33;19.80;;;3.45;;
59846;SDS011;45728;48.788;2.302;2023-12-29T00:33:59;17.10;;;3.28;;
59846;SDS011;45728;48.788;2.302;2023-12-29T00:36:25;13.05;;;3.55;;
59846;SDS011;45728;48.788;2.302;2023-12-29T00:38:51;10.50;;;2.83;;
59846;SDS011;45728;48.788;2.302;2023-12-29T00:41:17;12.65;;;3.35;;
59846;SDS011;45728;48.788;2.302;2023-12-29T00:43:43;12.23;;;3.13;;
59846;SDS011;45728;48.788;2.302;2023-12-29T00:46:10;12.85;;;2.78;;
59846;SDS011;45728;48.788;2.302;2023-12-29T00:48:39;13.48;;;3.50;;
59846;SDS011;45728;48.788;2.302;2023-12-29T00:51:05;18.90;;;3.92;;
59846;SDS011;45728;48.788;2.302;2023-12-29T00:53:31;19.63;;;4.00;;
59846;SDS011;45728;48.788;2.302;2023-12-29T00:55:59;17.77;;;3.22;;
59846;SDS011;45728;48.788;2.302;2023-12-29T00:58:26;12.18;;;3.40;;
59846;SDS011;45728;48.788;2.302;2023-12-29T01:00:52;17.17;;;3.42;;
59846;SDS011;45728;48.788;2.302;2023-12-29T01:03:18;13.55;;;3.53;;
59846;SDS011;45728;48.788;2.302;2023-12-29T01:05:45;19.90;;;3.83;;
59846;SDS011;45728;48.788;2.302;2023-12-29T01:08:12;14.73;;;3.80;;
59846;SDS011;45728;48.788;2.302;2023-12-29T01:10:38;16.00;;;3.88;;
59846;SDS011;45728;48.788;2.302;2023-12-29T01:13:04;15.98;;;3.50;;
59846;SDS011;45728;48.788;2.302;2023-12-29T01:15:30;11.70;;;3.28;;
59846;SDS011;45728;48.788;2.302;2023-12-29T01:17:56;16.83;;;3.55;;
59846;SDS011;45728;48.788;2.302;2023-12-29T01:20:22;12.90;;;3.53;;
59846;SDS011;45728;48.788;2.302;2023-12-29T01:22:48;15.32;;;3.72;;
59846;SDS011;45728;48.788;2.302;2023-12-29T01:25:14;13.10;;;3.60;;
59846;SDS011;45728;48.788;2.302;2023-12-29T01:27:40;14.43;;;3.47;;
59846;SDS011;45728;48.788;2.302;2023-12-29T01:30:06;16.45;;;3.63;;
59846;SDS011;45728;48.788;2.302;2023-12-29T01:32:32;9.82;;;3.38;;
59846;SDS011;45728;48.788;2.302;2023-12-29T01:34:58;14.05;;;3.58;;
59846;SDS011;45728;48.788;2.302;2023-12-29T01:37:25;19.73;;;3.78;;
59846;SDS011;45728;48.788;2.302;2023-12-29T01:39:51;15.20;;;3.88;;
59846;SDS011;45728;48.788;2.302;2023-12-29T01:42:17;14.32;;;3.83;;
59846;SDS011;45728;48.788;2.302;2023-12-29T01:44:43;19.92;;;4.00;;
59846;SDS011;45728;48.788;2.302;2023-12-29T01:47:13;25.08;;;4.40;;
59846;SDS011;45728;48.788;2.302;2023-12-29T01:49:44;17.20;;;3.30;;
59846;SDS011;45728;48.788;2.302;2023-12-29T01:52:11;12.90;;;3.40;;
59846;SDS011;45728;48.788;2.302;2023-12-29T01:54:38;14.57;;;3.53;;
59846;SDS011;45728;48.788;2.302;2023-12-29T01:57:06;13.73;;;3.42;;
59846;SDS011;45728;48.788;2.302;2023-12-29T01:59:34;12.55;;;3.55;;
59846;SDS011;45728;48.788;2.302;2023-12-29T02:02:01;16.75;;;3.85;;
59846;SDS011;45728;48.788;2.302;2023-12-29T02:04:27;19.10;;;3.95;;
59846;SDS011;45728;48.788;2.302;2023-12-29T02:06:54;16.75;;;4.13;;
59846;SDS011;45728;48.788;2.302;2023-12-29T02:09:20;12.73;;;3.28;;
59846;SDS011;45728;48.788;2.302;2023-12-29T02:11:47;15.40;;;3.78;;
59846;SDS011;45728;48.788;2.302;2023-12-29T02:14:16;12.25;;;3.42;;
59846;SDS011;45728;48.788;2.302;2023-12-29T02:19:43;16.70;;;3.63;;
59846;SDS011;45728;48.788;2.302;2023-12-29T02:22:11;19.58;;;3.75;;
59846;SDS011;45728;48.788;2.302;2023-12-29T02:24:38;13.07;;;3.50;;
59846;SDS011;45728;48.788;2.302;2023-12-29T02:30:37;15.38;;;3.20;;
59846;SDS011;45728;48.788;2.302;2023-12-29T02:33:09;15.98;;;3.13;;
59846;SDS011;45728;48.788;2.302;2023-12-29T02:35:39;18.92;;;3.63;;
59846;SDS011;45728;48.788;2.302;2023-12-29T02:38:08;14.77;;;3.43;;
59846;SDS011;45728;48.788;2.302;2023-12-29T02:40:34;18.67;;;3.63;;
59846;SDS011;45728;48.788;2.302;2023-12-29T02:43:01;19.52;;;4.05;;
59846;SDS011;45728;48.788;2.302;2023-12-29T02:45:27;12.43;;;3.38;;
59846;SDS011;45728;48.788;2.302;2023-12-29T02:47:53;14.57;;;3.33;;
59846;SDS011;45728;48.788;2.302;2023-12-29T02:50:19;17.38;;;3.70;;
59846;SDS011;45728;48.788;2.302;2023-12-29T02:52:45;14.95;;;3.53;;
59846;SDS011;45728;48.788;2.302;2023-12-29T02:55:11;14.55;;;3.63;;
59846;SDS011;45728;48.788;2.302;2023-12-29T02:57:38;21.63;;;3.65;;
59846;SDS011;45728;48.788;2.302;2023-12-29T03:00:04;16.55;;;3.22;;
59846;SDS011;45728;48.788;2.302;2023-12-29T03:02:31;17.90;;;3.40;;
59846;SDS011;45728;48.788;2.302;2023-12-29T03:04:58;18.25;;;4.00;;
59846;SDS011;45728;48.788;2.302;2023-12-29T03:07:24;19.38;;;4.13;;
59846;SDS011;45728;48.788;2.302;2023-12-29T03:09:50;32.17;;;4.10;;
59846;SDS011;45728;48.788;2.302;2023-12-29T03:12:16;12.57;;;3.42;;
59846;SDS011;45728;48.788;2.302;2023-12-29T03:14:43;15.05;;;3.92;;
59846;SDS011;45728;48.788;2.302;2023-12-29T03:17:10;16.77;;;3.92;;
59846;SDS011;45728;48.788;2.302;2023-12-29T03:19:37;13.27;;;3.40;;
59846;SDS011;45728;48.788;2.302;2023-12-29T03:22:03;16.35;;;3.45;;
59846;SDS011;45728;48.788;2.302;2023-12-29T03:24:29;17.73;;;3.70;;
59846;SDS011;45728;48.788;2.302;2023-12-29T03:26:56;17.48;;;3.70;;
59846;SDS011;45728;48.788;2.302;2023-12-29T03:29:22;15.00;;;3.40;;
59846;SDS011;45728;48.788;2.302;2023-12-29T03:31:48;17.33;;;3.75;;
59846;SDS011;45728;48.788;2.302;2023-12-29T03:34:14;18.17;;;3.38;;
59846;SDS011;45728;48.788;2.302;2023-12-29T03:36:40;22.85;;;4.22;;
59846;SDS011;45728;48.788;2.302;2023-12-29T03:39:06;19.63;;;4.22;;
59846;SDS011;45728;48.788;2.302;2023-12-29T03:41:32;17.25;;;3.47;;
59846;SDS011;45728;48.788;2.302;2023-12-29T03:43:58;16.83;;;3.45;;
59846;SDS011;45728;48.788;2.302;2023-12-29T03:46:25;17.90;;;3.85;;
59846;SDS011;45728;48.788;2.302;2023-12-29T03:48:51;16.52;;;3.47;;
59846;SDS011;45728;48.788;2.302;2023-12-29T03:51:18;20.83;;;3.88;;
59846;SDS011;45728;48.788;2.302;2023-12-29T03:53:44;12.20;;;3.10;;
59846;SDS011;45728;48.788;2.302;2023-12-29T03:56:14;14.85;;;3.80;;
59846;SDS011;45728;48.788;2.302;2023-12-29T03:58:44;14.73;;;3.70;;
59846;SDS011;45728;48.788;2.302;2023-12-29T04:01:12;14.95;;;3.20;;
59846;SDS011;45728;48.788;2.302;2023-12-29T04:03:38;16.83;;;3.30;;
59846;SDS011;45728;48.788;2.302;2023-12-29T04:06:05;16.60;;;3.30;;
59846;SDS011;45728;48.788;2.302;2023-12-29T04:08:32;16.90;;;3.75;;
59846;SDS011;45728;48.788;2.302;2023-12-29T04:11:02;18.42;;;3.20;;
59846;SDS011;45728;48.788;2.302;2023-12-29T04:13:28;13.88;;;3.50;;
59846;SDS011;45728;48.788;2.302;2023-12-29T04:15:55;15.10;;;3.35;;
59846;SDS011;45728;48.788;2.302;2023-12-29T04:18:21;16.65;;;3.85;;
59846;SDS011;45728;48.788;2.302;2023-12-29T04:20:48;14.68;;;3.58;;
59846;SDS011;45728;48.788;2.302;2023-12-29T04:23:14;14.20;;;3.22;;
59846;SDS011;45728;48.788;2.302;2023-12-29T04:25:41;16.00;;;3.63;;
59846;SDS011;45728;48.788;2.302;2023-12-29T04:28:07;15.52;;;3.30;;
59846;SDS011;45728;48.788;2.302;2023-12-29T04:30:34;12.15;;;3.40;;
59846;SDS011;45728;48.788;2.302;2023-12-29T04:33:00;14.82;;;3.45;;
59846;SDS011;45728;48.788;2.302;2023-12-29T04:35:27;15.55;;;3.58;;
59846;SDS011;45728;48.788;2.302;2023-12-29T04:37:53;17.88;;;3.42;;
59846;SDS011;45728;48.788;2.302;2023-12-29T04:40:19;15.05;;;3.20;;
59846;SDS011;45728;48.788;2.302;2023-12-29T04:42:45;15.27;;;3.60;;
59846;SDS011;45728;48.788;2.302;2023-12-29T04:45:11;18.92;;;3.50;;
59846;SDS011;45728;48.788;2.302;2023-12-29T04:47:38;15.60;;;3.20;;
59846;SDS011;45728;48.788;2.302;2023-12-29T04:50:04;15.60;;;3.08;;
59846;SDS011;45728;48.788;2.302;2023-12-29T04:52:33;18.92;;;3.63;;
59846;SDS011;45728;48.788;2.302;2023-12-29T04:55:00;16.88;;;3.25;;
59846;SDS011;45728;48.788;2.302;2023-12-29T04:57:26;19.13;;;3.50;;
59846;SDS011;45728;48.788;2.302;2023-12-29T04:59:52;13.32;;;3.25;;
59846;SDS011;45728;48.788;2.302;2023-12-29T05:02:18;18.88;;;3.83;;
59846;SDS011;45728;48.788;2.302;2023-12-29T05:04:45;18.98;;;3.63;;
59846;SDS011;45728;48.788;2.302;2023-12-29T05:07:11;13.85;;;3.75;;
59846;SDS011;45728;48.788;2.302;2023-12-29T05:09:38;22.90;;;3.65;;
59846;SDS011;45728;48.788;2.302;2023-12-29T05:12:04;13.52;;;3.13;;
59846;SDS011;45728;48.788;2.302;2023-12-29T05:14:30;18.50;;;4.20;;
59846;SDS011;45728;48.788;2.302;2023-12-29T05:16:56;20.77;;;3.88;;
59846;SDS011;45728;48.788;2.302;2023-12-29T05:19:22;17.63;;;3.50;;
59846;SDS011;45728;48.788;2.302;2023-12-29T05:21:48;19.30;;;3.05;;
59846;SDS011;45728;48.788;2.302;2023-12-29T05:24:17;18.48;;;3.45;;
59846;SDS011;45728;48.788;2.302;2023-12-29T05:26:43;24.15;;;3.72;;
59846;SDS011;45728;48.788;2.302;2023-12-29T05:29:09;19.55;;;3.97;;
59846;SDS011;45728;48.788;2.302;2023-12-29T05:31:35;14.65;;;3.25;;
59846;SDS011;45728;48.788;2.302;2023-12-29T05:34:01;13.30;;;3.17;;
59846;SDS011;45728;48.788;2.302;2023-12-29T05:36:27;22.45;;;3.70;;
59846;SDS011;45728;48.788;2.302;2023-12-29T05:38:53;18.38;;;3.80;;
59846;SDS011;45728;48.788;2.302;2023-12-29T05:41:21;17.40;;;3.50;;
59846;SDS011;45728;48.788;2.302;2023-12-29T05:43:47;18.00;;;3.92;;
59846;SDS011;45728;48.788;2.302;2023-12-29T05:46:13;15.77;;;3.92;;
59846;SDS011;45728;48.788;2.302;2023-12-29T05:48:39;17.48;;;3.55;;
59846;SDS011;45728;48.788;2.302;2023-12-29T05:51:07;16.63;;;3.28;;
59846;SDS011;45728;48.788;2.302;2023-12-29T05:53:39;14.07;;;3.22;;
59846;SDS011;45728;48.788;2.302;2023-12-29T05:56:05;20.10;;;3.92;;
59846;SDS011;45728;48.788;2.302;2023-12-29T05:58:31;16.05;;;3.42;;
59846;SDS011;45728;48.788;2.302;2023-12-29T06:00:58;12.15;;;3.10;;
59846;SDS011;45728;48.788;2.302;2023-12-29T06:03:26;13.15;;;3.15;;
59846;SDS011;45728;48.788;2.302;2023-12-29T06:05:52;14.68;;;3.42;;
59846;SDS011;45728;48.788;2.302;2023-12-29T06:08:18;12.93;;;3.03;;
59846;SDS011;45728;48.788;2.302;2023-12-29T06:10:44;18.40;;;3.75;;
59846;SDS011;45728;48.788;2.302;2023-12-29T06:13:10;15.35;;;3.10;;
59846;SDS011;45728;48.788;2.302;2023-12-29T06:15:37;14.50;;;3.30;;
59846;SDS011;45728;48.788;2.302;2023-12-29T06:18:04;17.77;;;3.58;;
59846;SDS011;45728;48.788;2.302;2023-12-29T06:20:30;13.00;;;2.95;;
59846;SDS011;45728;48.788;2.302;2023-12-29T06:22:56;15.63;;;3.25;;
59846;SDS011;45728;48.788;2.302;2023-12-29T06:25:22;16.13;;;3.45;;
59846;SDS011;45728;48.788;2.302;2023-12-29T06:27:48;14.25;;;3.38;;
59846;SDS011;45728;48.788;2.302;2023-12-29T06:30:14;18.33;;;3.50;;
59846;SDS011;45728;48.788;2.302;2023-12-29T06:32:41;16.05;;;3.15;;
59846;SDS011;45728;48.788;2.302;2023-12-29T06:35:07;18.15;;;3.67;;
59846;SDS011;45728;48.788;2.302;2023-12-29T06:37:38;13.15;;;3.58;;
59846;SDS011;45728;48.788;2.302;2023-12-29T06:40:05;17.23;;;3.63;;
59846;SDS011;45728;48.788;2.302;2023-12-29T06:42:32;12.65;;;2.80;;
59846;SDS011;45728;48.788;2.302;2023-12-29T06:44:59;15.60;;;3.17;;
59846;SDS011;45728;48.788;2.302;2023-12-29T06:47:25;14.65;;;2.97;;
59846;SDS011;45728;48.788;2.302;2023-12-29T06:49:51;12.85;;;3.33;;
59846;SDS011;45728;48.788;2.302;2023-12-29T06:52:17;13.65;;;3.17;;
59846;SDS011;45728;48.788;2.302;2023-12-29T06:54:43;10.85;;;2.70;;
59846;SDS011;45728;48.788;2.302;2023-12-29T06:57:09;12.93;;;3.15;;
59846;SDS011;45728;48.788;2.302;2023-12-29T06:59:35;12.10;;;3.42;;
59846;SDS011;45728;48.788;2.302;2023-12-29T07:02:02;14.85;;;3.30;;
59846;SDS011;45728;48.788;2.302;2023-12-29T07:04:28;11.32;;;2.78;;
59846;SDS011;45728;48.788;2.302;2023-12-29T07:06:54;15.50;;;2.63;;
59846;SDS011;45728;48.788;2.302;2023-12-29T07:09:20;16.80;;;3.10;;
59846;SDS011;45728;48.788;2.302;2023-12-29T07:11:47;16.13;;;3.45;;
59846;SDS011;45728;48.788;2.302;2023-12-29T07:14:14;15.18;;;3.55;;
59846;SDS011;45728;48.788;2.302;2023-12-29T07:16:40;12.48;;;2.95;;
59846;SDS011;45728;48.788;2.302;2023-12-29T07:19:06;15.52;;;3.00;;
59846;SDS011;45728;48.788;2.302;2023-12-29T07:21:32;14.38;;;3.15;;
59846;SDS011;45728;48.788;2.302;2023-12-29T07:23:58;11.57;;;2.95;;
59846;SDS011;45728;48.788;2.302;2023-12-29T07:26:24;16.77;;;3.10;;
59846;SDS011;45728;48.788;2.302;2023-12-29T07:28:50;10.40;;;2.78;;
59846;SDS011;45728;48.788;2.302;2023-12-29T07:31:20;13.45;;;3.10;;
59846;SDS011;45728;48.788;2.302;2023-12-29T07:33:46;9.63;;;3.17;;
59846;SDS011;45728;48.788;2.302;2023-12-29T07:36:12;14.93;;;3.08;;
59846;SDS011;45728;48.788;2.302;2023-12-29T07:38:38;9.88;;;2.55;;
59846;SDS011;45728;48.788;2.302;2023-12-29T07:41:05;11.07;;;2.90;;
59846;SDS011;45728;48.788;2.302;2023-12-29T07:43:31;9.38;;;2.47;;
59846;SDS011;45728;48.788;2.302;2023-12-29T07:45:57;12.48;;;2.80;;
59846;SDS011;45728;48.788;2.302;2023-12-29T07:48:23;11.23;;;2.50;;
59846;SDS011;45728;48.788;2.302;2023-12-29T07:50:49;11.63;;;2.85;;
59846;SDS011;45728;48.788;2.302;2023-12-29T07:53:15;13.55;;;2.47;;
59846;SDS011;45728;48.788;2.302;2023-12-29T07:55:42;16.20;;;2.97;;
59846;SDS011;45728;48.788;2.302;2023-12-29T07:58:09;12.50;;;2.75;;
59846;SDS011;45728;48.788;2.302;2023-12-29T08:00:36;10.13;;;2.58;;
59846;SDS011;45728;48.788;2.302;2023-12-29T08:03:03;11.00;;;2.78;;
59846;SDS011;45728;48.788;2.302;2023-12-29T08:05:31;10.75;;;2.53;;
59846;SDS011;45728;48.788;2.302;2023-12-29T08:07:57;10.70;;;2.97;;
59846;SDS011;45728;48.788;2.302;2023-12-29T08:10:23;14.52;;;3.03;;
59846;SDS011;45728;48.788;2.302;2023-12-29T08:12:49;11.35;;;2.80;;
59846;SDS011;45728;48.788;2.302;2023-12-29T08:15:15;12.30;;;2.58;;
59846;SDS011;45728;48.788;2.302;2023-12-29T08:17:41;12.25;;;2.75;;
59846;SDS011;45728;48.788;2.302;2023-12-29T08:20:07;11.55;;;2.78;;
59846;SDS011;45728;48.788;2.302;2023-12-29T08:22:34;12.68;;;2.72;;
59846;SDS011;45728;48.788;2.302;2023-12-29T08:25:00;9.63;;;2.15;;
59846;SDS011;45728;48.788;2.302;2023-12-29T08:27:26;10.27;;;2.28;;
59846;SDS011;45728;48.788;2.302;2023-12-29T08:29:52;12.48;;;2.78;;
59846;SDS011;45728;48.788;2.302;2023-12-29T08:32:19;10.10;;;2.33;;
59846;SDS011;45728;48.788;2.302;2023-12-29T08:34:46;9.43;;;2.17;;
59846;SDS011;45728;48.788;2.302;2023-12-29T08:37:12;12.85;;;2.53;;
59846;SDS011;45728;48.788;2.302;2023-12-29T08:39:41;13.43;;;3.05;;
59846;SDS011;45728;48.788;2.302;2023-12-29T08:42:07;10.27;;;2.80;;
59846;SDS011;45728;48.788;2.302;2023-12-29T08:44:33;10.68;;;2.75;;
59846;SDS011;45728;48.788;2.302;2023-12-29T08:46:59;11.18;;;2.58;;
59846;SDS011;45728;48.788;2.302;2023-12-29T08:49:25;11.30;;;3.00;;
59846;SDS011;45728;48.788;2.302;2023-12-29T08:51:51;12.98;;;3.00;;
59846;SDS011;45728;48.788;2.302;2023-12-29T08:54:17;12.07;;;3.42;;
59846;SDS011;45728;48.788;2.302;2023-12-29T08:56:43;14.07;;;2.83;;
59846;SDS011;45728;48.788;2.302;2023-12-29T08:59:09;8.32;;;2.33;;
59846;SDS011;45728;48.788;2.302;2023-12-29T09:01:35;15.20;;;4.65;;
59846;SDS011;45728;48.788;2.302;2023-12-29T09:04:01;10.82;;;2.70;;
59846;SDS011;45728;48.788;2.302;2023-12-29T09:06:27;12.32;;;2.40;;
59846;SDS011;45728;48.788;2.302;2023-12-29T09:08:53;12.38;;;3.22;;
59846;SDS011;45728;48.788;2.302;2023-12-29T09:11:19;10.07;;;2.88;;
59846;SDS011;45728;48.788;2.302;2023-12-29T09:13:45;11.38;;;2.47;;
59846;SDS011;45728;48.788;2.302;2023-12-29T09:16:12;13.63;;;2.97;;
59846;SDS011;45728;48.788;2.302;2023-12-29T09:18:38;9.82;;;2.40;;
59846;SDS011;45728;48.788;2.302;2023-12-29T09:21:04;13.93;;;2.88;;
59846;SDS011;45728;48.788;2.302;2023-12-29T09:23:30;11.07;;;2.88;;
59846;SDS011;45728;48.788;2.302;2023-12-29T09:25:56;11.65;;;2.80;;
59846;SDS011;45728;48.788;2.302;2023-12-29T09:28:22;14.70;;;3.13;;
59846;SDS011;45728;48.788;2.302;2023-12-29T09:30:48;14.27;;;3.13;;
59846;SDS011;45728;48.788;2.302;2023-12-29T09:33:14;12.20;;;2.75;;
59846;SDS011;45728;48.788;2.302;2023-12-29T09:35:40;11.20;;;2.72;;
59846;SDS011;45728;48.788;2.302;2023-12-29T09:38:06;11.73;;;2.88;;
59846;SDS011;45728;48.788;2.302;2023-12-29T09:40:35;11.52;;;2.78;;
59846;SDS011;45728;48.788;2.302;2023-12-29T09:43:01;12.23;;;2.63;;
59846;SDS011;45728;48.788;2.302;2023-12-29T09:45:30;13.85;;;2.70;;
59846;SDS011;45728;48.788;2.302;2023-12-29T09:47:59;11.70;;;2.50;;
59846;SDS011;45728;48.788;2.302;2023-12-29T09:50:28;14.55;;;2.78;;
59846;SDS011;45728;48.788;2.302;2023-12-29T09:52:54;9.55;;;2.25;;
59846;SDS011;45728;48.788;2.302;2023-12-29T09:55:20;9.23;;;2.65;;
59846;SDS011;45728;48.788;2.302;2023-12-29T09:57:47;7.82;;;2.42;;
59846;SDS011;45728;48.788;2.302;2023-12-29T10:00:15;12.98;;;2.85;;
59846;SDS011;45728;48.788;2.302;2023-12-29T10:02:42;9.70;;;2.72;;
59846;SDS011;45728;48.788;2.302;2023-12-29T10:05:08;10.60;;;3.15;;
59846;SDS011;45728;48.788;2.302;2023-12-29T10:07:38;10.20;;;2.88;;
59846;SDS011;45728;48.788;2.302;2023-12-29T10:10:05;11.85;;;2.80;;
59846;SDS011;45728;48.788;2.302;2023-12-29T10:12:32;11.38;;;3.20;;
59846;SDS011;45728;48.788;2.302;2023-12-29T10:15:10;13.05;;;2.85;;
59846;SDS011;45728;48.788;2.302;2023-12-29T10:23:11;18.52;;;3.25;;
59846;SDS011;45728;48.788;2.302;2023-12-29T10:25:42;14.70;;;3.50;;
59846;SDS011;45728;48.788;2.302;2023-12-29T10:28:11;19.23;;;3.72;;
59846;SDS011;45728;48.788;2.302;2023-12-29T10:30:38;13.25;;;3.10;;
59846;SDS011;45728;48.788;2.302;2023-12-29T10:33:05;15.60;;;3.40;;
59846;SDS011;45728;48.788;2.302;2023-12-29T10:35:31;14.88;;;2.92;;
59846;SDS011;45728;48.788;2.302;2023-12-29T10:38:12;13.60;;;2.87;;
59846;SDS011;45728;48.788;2.302;2023-12-29T10:40:38;11.88;;;3.53;;
59846;SDS011;45728;48.788;2.302;2023-12-29T10:43:05;13.25;;;3.20;;
59846;SDS011;45728;48.788;2.302;2023-12-29T10:45:33;13.45;;;2.80;;
59846;SDS011;45728;48.788;2.302;2023-12-29T10:48:00;15.73;;;2.75;;
59846;SDS011;45728;48.788;2.302;2023-12-29T10:50:27;15.27;;;2.97;;
59846;SDS011;45728;48.788;2.302;2023-12-29T10:53:11;10.70;;;2.67;;
59846;SDS011;45728;48.788;2.302;2023-12-29T10:55:44;12.95;;;3.03;;
59846;SDS011;45728;48.788;2.302;2023-12-29T10:58:10;15.50;;;3.53;;
59846;SDS011;45728;48.788;2.302;2023-12-29T11:00:36;12.07;;;3.00;;
59846;SDS011;45728;48.788;2.302;2023-12-29T11:03:02;11.02;;;2.70;;
59846;SDS011;45728;48.788;2.302;2023-12-29T11:05:29;13.52;;;2.88;;
59846;SDS011;45728;48.788;2.302;2023-12-29T11:07:55;11.85;;;2.92;;
59846;SDS011;45728;48.788;2.302;2023-12-29T11:10:21;13.25;;;2.97;;
59846;SDS011;45728;48.788;2.302;2023-12-29T11:12:48;16.77;;;3.28;;
59846;SDS011;45728;48.788;2.302;2023-12-29T11:15:15;12.25;;;2.67;;
59846;SDS011;45728;48.788;2.302;2023-12-29T11:17:42;15.27;;;3.13;;
59846;SDS011;45728;48.788;2.302;2023-12-29T11:20:15;12.23;;;2.80;;
59846;SDS011;45728;48.788;2.302;2023-12-29T11:22:42;9.20;;;2.28;;
59846;SDS011;45728;48.788;2.302;2023-12-29T11:25:09;13.30;;;2.58;;
59846;SDS011;45728;48.788;2.302;2023-12-29T11:30:23;12.85;;;2.90;;
59846;SDS011;45728;48.788;2.302;2023-12-29T11:35:20;15.35;;;2.97;;
59846;SDS011;45728;48.788;2.302;2023-12-29T11:41:13;11.80;;;2.83;;
59846;SDS011;45728;48.788;2.302;2023-12-29T11:43:55;12.90;;;2.90;;
59846;SDS011;45728;48.788;2.302;2023-12-29T11:46:32;12.98;;;2.83;;
59846;SDS011;45728;48.788;2.302;2023-12-29T11:48:58;15.35;;;3.20;;
59846;SDS011;45728;48.788;2.302;2023-12-29T11:51:44;8.77;;;2.70;;
59846;SDS011;45728;48.788;2.302;2023-12-29T11:54:21;10.25;;;2.75;;
59846;SDS011;45728;48.788;2.302;2023-12-29T11:56:52;10.25;;;2.55;;
59846;SDS011;45728;48.788;2.302;2023-12-29T11:59:22;13.07;;;3.15;;
59846;SDS011;45728;48.788;2.302;2023-12-29T12:01:50;12.75;;;2.97;;
59846;SDS011;45728;48.788;2.302;2023-12-29T12:04:33;10.23;;;2.90;;
59846;SDS011;45728;48.788;2.302;2023-12-29T12:07:01;12.00;;;2.90;;
59846;SDS011;45728;48.788;2.302;2023-12-29T12:09:28;11.73;;;2.67;;
59846;SDS011;45728;48.788;2.302;2023-12-29T12:11:54;14.70;;;2.78;;
59846;SDS011;45728;48.788;2.302;2023-12-29T12:17:35;13.80;;;2.88;;
59846;SDS011;45728;48.788;2.302;2023-12-29T12:20:03;10.55;;;2.80;;
59846;SDS011;45728;48.788;2.302;2023-12-29T12:22:36;14.35;;;2.67;;
59846;SDS011;45728;48.788;2.302;2023-12-29T12:25:03;14.85;;;3.08;;
59846;SDS011;45728;48.788;2.302;2023-12-29T12:27:30;12.82;;;3.25;;
59846;SDS011;45728;48.788;2.302;2023-12-29T12:29:57;14.23;;;3.30;;
59846;SDS011;45728;48.788;2.302;2023-12-29T12:32:26;14.15;;;2.80;;
59846;SDS011;45728;48.788;2.302;2023-12-29T12:34:52;9.98;;;2.92;;
59846;SDS011;45728;48.788;2.302;2023-12-29T12:37:23;10.60;;;2.55;;
59846;SDS011;45728;48.788;2.302;2023-12-29T12:39:52;9.50;;;2.10;;
59846;SDS011;45728;48.788;2.302;2023-12-29T12:42:19;7.32;;;2.47;;
59846;SDS011;45728;48.788;2.302;2023-12-29T12:44:49;10.90;;;2.55;;
59846;SDS011;45728;48.788;2.302;2023-12-29T12:47:39;9.80;;;2.78;;
59846;SDS011;45728;48.788;2.302;2023-12-29T12:50:10;10.65;;;2.67;;
59846;SDS011;45728;48.788;2.302;2023-12-29T12:52:38;11.18;;;2.90;;
59846;SDS011;45728;48.788;2.302;2023-12-29T12:55:05;12.75;;;3.10;;
59846;SDS011;45728;48.788;2.302;2023-12-29T12:57:33;9.43;;;2.95;;
59846;SDS011;45728;48.788;2.302;2023-12-29T13:00:00;10.35;;;2.63;;
59846;SDS011;45728;48.788;2.302;2023-12-29T13:02:28;10.70;;;2.65;;
59846;SDS011;45728;48.788;2.302;2023-12-29T13:04:57;10.10;;;2.77;;
59846;SDS011;45728;48.788;2.302;2023-12-29T13:07:24;10.75;;;2.63;;
59846;SDS011;45728;48.788;2.302;2023-12-29T13:09:50;9.57;;;2.97;;
59846;SDS011;45728;48.788;2.302;2023-12-29T13:12:18;13.40;;;3.20;;
59846;SDS011;45728;48.788;2.302;2023-12-29T13:14:45;10.50;;;2.85;;
59846;SDS011;45728;48.788;2.302;2023-12-29T13:17:12;14.02;;;3.08;;
59846;SDS011;45728;48.788;2.302;2023-12-29T13:19:40;10.25;;;2.65;;
59846;SDS011;45728;48.788;2.302;2023-12-29T13:22:07;10.80;;;3.00;;
59846;SDS011;45728;48.788;2.302;2023-12-29T13:24:35;10.55;;;2.67;;
59846;SDS011;45728;48.788;2.302;2023-12-29T13:27:07;10.50;;;3.03;;
59846;SDS011;45728;48.788;2.302;2023-12-29T13:29:34;11.20;;;2.78;;
59846;SDS011;45728;48.788;2.302;2023-12-29T13:32:22;10.98;;;3.45;;
59846;SDS011;45728;48.788;2.302;2023-12-29T13:35:16;8.90;;;2.95;;
59846;SDS011;45728;48.788;2.302;2023-12-29T13:40:40;11.82;;;2.65;;
59846;SDS011;45728;48.788;2.302;2023-12-29T13:43:11;13.55;;;2.95;;
59846;SDS011;45728;48.788;2.302;2023-12-29T13:45:40;14.75;;;2.70;;
59846;SDS011;45728;48.788;2.302;2023-12-29T13:48:07;9.88;;;2.78;;
59846;SDS011;45728;48.788;2.302;2023-12-29T13:50:35;18.95;;;3.53;;
59846;SDS011;45728;48.788;2.302;2023-12-29T13:53:01;9.23;;;2.92;;
59846;SDS011;45728;48.788;2.302;2023-12-29T13:55:27;9.90;;;2.83;;
59846;SDS011;45728;48.788;2.302;2023-12-29T13:57:53;12.23;;;3.20;;
59846;SDS011;45728;48.788;2.302;2023-12-29T14:00:23;11.15;;;2.95;;
59846;SDS011;45728;48.788;2.302;2023-12-29T14:05:24;10.32;;;3.08;;
59846;SDS011;45728;48.788;2.302;2023-12-29T14:08:08;12.10;;;2.58;;
59846;SDS011;45728;48.788;2.302;2023-12-29T14:10:42;9.00;;;2.83;;
59846;SDS011;45728;48.788;2.302;2023-12-29T14:13:08;9.98;;;3.03;;
59846;SDS011;45728;48.788;2.302;2023-12-29T14:15:41;11.25;;;2.85;;
59846;SDS011;45728;48.788;2.302;2023-12-29T14:18:13;12.27;;;2.80;;
59846;SDS011;45728;48.788;2.302;2023-12-29T14:20:54;10.00;;;2.45;;
59846;SDS011;45728;48.788;2.302;2023-12-29T14:23:20;10.27;;;2.80;;
59846;SDS011;45728;48.788;2.302;2023-12-29T14:25:46;10.57;;;2.35;;
59846;SDS011;45728;48.788;2.302;2023-12-29T14:28:16;7.80;;;2.30;;
59846;SDS011;45728;48.788;2.302;2023-12-29T14:30:44;8.93;;;2.40;;
59846;SDS011;45728;48.788;2.302;2023-12-29T14:33:11;15.07;;;2.72;;
59846;SDS011;45728;48.788;2.302;2023-12-29T14:35:37;7.35;;;2.33;;
59846;SDS011;45728;48.788;2.302;2023-12-29T14:38:03;7.53;;;2.28;;
59846;SDS011;45728;48.788;2.302;2023-12-29T14:40:29;7.30;;;2.33;;
59846;SDS011;45728;48.788;2.302;2023-12-29T14:42:56;7.22;;;2.15;;
59846;SDS011;45728;48.788;2.302;2023-12-29T14:45:22;8.38;;;2.30;;
59846;SDS011;45728;48.788;2.302;2023-12-29T14:47:48;10.98;;;2.30;;
59846;SDS011;45728;48.788;2.302;2023-12-29T14:50:16;8.73;;;2.53;;
59846;SDS011;45728;48.788;2.302;2023-12-29T14:52:42;15.23;;;2.58;;
59846;SDS011;45728;48.788;2.302;2023-12-29T14:55:08;11.20;;;2.03;;
59846;SDS011;45728;48.788;2.302;2023-12-29T14:57:34;31.38;;;3.83;;
59846;SDS011;45728;48.788;2.302;2023-12-29T15:00:00;12.32;;;2.53;;
59846;SDS011;45728;48.788;2.302;2023-12-29T15:02:29;9.98;;;2.10;;
59846;SDS011;45728;48.788;2.302;2023-12-29T15:04:55;7.88;;;2.17;;
59846;SDS011;45728;48.788;2.302;2023-12-29T15:07:21;8.48;;;2.33;;